Time;durP1;ratioP1;P1;durP2;ratioP2;P2;SDS_P1;SDS_P2;PMS_P1;PMS_P2;Temp;Humidity;BMP_temperature;BMP_pressure;BME280_temperature;BME280_humidity;BME280_pressure;Samples;Min_cycle;Max_cycle;Signal;HPM_P1;HPM_P2
2023/01/07 00:01:17;;;;;;;0.40;0.20;;;20.70;58.80;;;;;;5067358;28;20040;-64
2023/01/07 00:03:45;;;;;;;0.20;0.20;;;20.70;58.70;;;;;;5066650;28;20785;-63
2023/01/07 00:06:14;;;;;;;0.25;0.10;;;20.70;58.70;;;;;;5067209;28;20047;-63
2023/01/07 00:08:43;;;;;;;0.40;0.10;;;20.70;58.60;;;;;;5066488;28;20052;-63
2023/01/07 00:11:15;;;;;;;0.40;0.40;;;20.70;58.60;;;;;;5066583;28;20044;-64
2023/01/07 00:13:42;;;;;;;0.05;0.05;;;20.70;58.60;;;;;;5062982;28;20828;-63
2023/01/07 00:16:11;;;;;;;0.10;0.10;;;20.70;58.60;;;;;;5066838;28;20131;-64
2023/01/07 00:18:39;;;;;;;0.20;0.10;;;20.70;58.60;;;;;;5066603;28;20154;-65
2023/01/07 00:21:09;;;;;;;0.32;0.10;;;20.70;58.50;;;;;;5056887;28;20041;-64
2023/01/07 00:23:38;;;;;;;1.20;0.10;;;20.60;58.40;;;;;;5045182;28;20608;-64
2023/01/07 00:26:07;;;;;;;0.28;0.10;;;20.60;58.40;;;;;;5046559;28;20047;-62
2023/01/07 00:28:37;;;;;;;0.95;0.20;;;20.60;58.40;;;;;;5053985;28;20052;-63
2023/01/07 00:31:06;;;;;;;0.17;0.10;;;20.60;58.40;;;;;;5066491;28;20055;-63
2023/01/07 00:33:34;;;;;;;0.43;0.30;;;20.60;58.30;;;;;;5064681;28;20041;-63
2023/01/07 00:36:03;;;;;;;0.20;0.10;;;20.60;58.30;;;;;;5066438;28;20052;-64
2023/01/07 00:38:30;;;;;;;0.57;0.10;;;20.60;58.30;;;;;;5065868;28;20121;-64
2023/01/07 00:40:57;;;;;;;0.10;0.10;;;20.60;58.30;;;;;;5046164;28;20072;-63
2023/01/07 00:43:24;;;;;;;0.20;0.10;;;20.60;58.30;;;;;;5063263;28;20051;-62
2023/01/07 00:45:53;;;;;;;0.10;0.10;;;20.60;58.30;;;;;;5064628;28;20686;-64
2023/01/07 00:48:22;;;;;;;0.32;0.20;;;20.60;58.20;;;;;;5066015;28;20059;-64
2023/01/07 00:50:51;;;;;;;0.30;0.17;;;20.60;58.20;;;;;;5065707;28;20101;-64
2023/01/07 00:53:18;;;;;;;0.10;0.10;;;20.60;58.10;;;;;;5064951;28;20041;-64
2023/01/07 00:55:47;;;;;;;0.40;0.20;;;20.60;58.00;;;;;;5065892;28;20505;-63
2023/01/07 00:58:15;;;;;;;0.10;0.10;;;20.60;58.00;;;;;;5065039;28;20068;-64
2023/01/07 01:00:42;;;;;;;0.10;0.10;;;20.60;57.90;;;;;;5065002;28;20048;-62
2023/01/07 01:03:12;;;;;;;0.10;0.10;;;20.60;57.90;;;;;;5064682;28;20052;-63
2023/01/07 01:05:39;;;;;;;0.10;0.10;;;20.60;57.90;;;;;;5065656;28;20068;-63
2023/01/07 01:08:07;;;;;;;0.85;0.10;;;20.60;57.90;;;;;;5048012;28;20040;-63
2023/01/07 01:10:34;;;;;;;0.10;0.10;;;20.60;57.80;;;;;;5065538;28;20045;-63
2023/01/07 01:13:01;;;;;;;0.13;0.10;;;20.60;57.80;;;;;;5065703;28;20516;-64
2023/01/07 01:15:28;;;;;;;0.10;0.10;;;20.60;57.70;;;;;;5064608;28;20052;-63
2023/01/07 01:17:56;;;;;;;1.02;0.10;;;20.60;57.70;;;;;;5065741;28;20072;-64
2023/01/07 01:20:24;;;;;;;1.70;0.20;;;20.50;57.50;;;;;;5065325;28;20037;-63
2023/01/07 01:22:51;;;;;;;0.20;0.10;;;20.60;57.60;;;;;;5065732;28;20041;-63
2023/01/07 01:25:18;;;;;;;0.20;0.10;;;20.50;57.40;;;;;;5065850;28;20044;-63
2023/01/07 01:27:45;;;;;;;0.22;0.22;;;20.50;57.40;;;;;;5063951;28;20055;-62
2023/01/07 01:30:13;;;;;;;0.50;0.10;;;20.50;57.40;;;;;;5065089;28;20096;-63
2023/01/07 01:32:41;;;;;;;0.10;0.10;;;20.50;57.50;;;;;;5064224;28;20834;-64
2023/01/07 01:35:09;;;;;;;0.32;0.10;;;20.50;57.40;;;;;;5063489;28;20056;-64
2023/01/07 01:37:37;;;;;;;0.63;0.10;;;20.50;57.40;;;;;;5051064;28;20136;-63
2023/01/07 01:40:06;;;;;;;2.28;0.17;;;20.50;57.40;;;;;;5064023;28;20052;-63
2023/01/07 01:42:33;;;;;;;2.08;0.10;;;20.50;57.40;;;;;;5065486;28;20048;-64
2023/01/07 01:45:04;;;;;;;0.55;0.10;;;20.50;57.40;;;;;;5047783;28;20787;-64
2023/01/07 01:47:40;;;;;;;2.63;0.00;;;20.50;57.40;;;;;;5064142;28;20594;-62
2023/01/07 01:50:16;;;;;;;5.90;0.10;;;20.50;57.30;;;;;;5063786;28;20456;-64
2023/01/07 01:52:47;;;;;;;0.40;0.10;;;20.50;57.40;;;;;;5064589;28;20049;-63
2023/01/07 01:55:17;;;;;;;0.17;0.10;;;20.50;57.30;;;;;;5064400;28;20049;-64
2023/01/07 01:57:47;;;;;;;0.10;0.10;;;20.50;57.30;;;;;;5058979;28;20048;-64
2023/01/07 02:00:16;;;;;;;0.10;0.10;;;20.50;57.20;;;;;;5063914;28;20059;-63
2023/01/07 02:02:52;;;;;;;0.30;0.10;;;20.50;57.20;;;;;;5064174;28;20043;-63
2023/01/07 02:05:19;;;;;;;0.77;0.10;;;20.50;57.30;;;;;;5065072;28;20124;-63
2023/01/07 02:07:47;;;;;;;0.47;0.10;;;20.50;57.20;;;;;;5065173;28;20058;-62
2023/01/07 02:10:17;;;;;;;1.25;0.20;;;20.50;57.20;;;;;;5066998;28;20132;-62
2023/01/07 02:12:56;;;;;;;0.75;0.10;;;20.50;57.30;;;;;;5067751;28;20052;-62
2023/01/07 02:15:30;;;;;;;0.10;0.08;;;20.50;57.30;;;;;;5068038;28;20133;-61
2023/01/07 02:18:11;;;;;;;0.85;0.03;;;20.50;57.30;;;;;;5067218;28;20066;-62
2023/01/07 02:20:47;;;;;;;0.28;0.28;;;20.50;57.20;;;;;;5051262;28;20048;-63
2023/01/07 02:23:42;;;;;;;0.57;0.10;;;20.50;57.20;;;;;;5049075;28;20037;-62
2023/01/07 02:26:39;;;;;;;0.47;0.10;;;20.50;57.20;;;;;;5059503;28;20044;-62
2023/01/07 02:29:33;;;;;;;0.55;0.10;;;20.50;57.20;;;;;;5067213;28;20140;-63
2023/01/07 02:32:15;;;;;;;0.47;0.10;;;20.50;57.10;;;;;;5067705;28;20045;-63
2023/01/07 02:34:51;;;;;;;1.85;0.30;;;20.40;57.10;;;;;;5067046;28;20048;-62
2023/01/07 02:37:26;;;;;;;1.05;0.10;;;20.40;57.10;;;;;;5067630;28;20138;-62
2023/01/07 02:39:59;;;;;;;0.40;0.10;;;20.40;57.10;;;;;;5068878;28;20064;-63
2023/01/07 02:42:37;;;;;;;0.05;0.03;;;20.40;57.10;;;;;;5068759;28;20084;-61
2023/01/07 02:45:11;;;;;;;0.17;0.15;;;20.50;57.10;;;;;;5067420;28;20114;-62
2023/01/07 02:47:44;;;;;;;0.10;0.10;;;20.40;57.10;;;;;;5048926;28;20053;-62
2023/01/07 02:50:11;;;;;;;0.10;0.10;;;20.40;57.00;;;;;;5066020;28;20044;-63
2023/01/07 02:52:38;;;;;;;0.52;0.20;;;20.40;56.90;;;;;;5068679;28;20036;-63
2023/01/07 02:55:10;;;;;;;6.38;0.30;;;20.40;56.90;;;;;;5067117;28;20056;-64
2023/01/07 02:58:05;;;;;;;0.68;0.05;;;20.40;56.90;;;;;;5066992;28;20097;-62
2023/01/07 03:00:48;;;;;;;1.83;0.20;;;20.40;56.80;;;;;;5059084;28;20067;-62
2023/01/07 03:03:31;;;;;;;0.20;0.10;;;20.40;56.80;;;;;;5067979;28;20139;-62
2023/01/07 03:06:12;;;;;;;0.22;0.00;;;20.50;57.50;;;;;;5068343;28;20551;-62
2023/01/07 03:08:54;;;;;;;0.10;0.10;;;20.40;56.80;;;;;;5066945;28;20486;-62
2023/01/07 03:11:26;;;;;;;0.80;0.10;;;20.40;56.80;;;;;;5067915;28;20422;-64
2023/01/07 03:14:00;;;;;;;0.10;0.10;;;20.40;56.80;;;;;;5066437;28;20055;-64
2023/01/07 03:16:34;;;;;;;0.30;0.10;;;20.40;56.80;;;;;;5066362;28;20040;-63
2023/01/07 03:19:06;;;;;;;1.55;0.10;;;20.40;56.80;;;;;;5068211;28;20047;-62
2023/01/07 03:21:34;;;;;;;0.10;0.00;;;20.40;56.80;;;;;;5065759;28;20652;-62
2023/01/07 03:24:02;;;;;;;0.47;0.00;;;20.40;56.80;;;;;;5066810;28;20044;-62
2023/01/07 03:26:33;;;;;;;4.30;0.10;;;20.40;56.70;;;;;;5067663;28;20142;-62
2023/01/07 03:29:01;;;;;;;0.30;0.00;;;20.40;56.70;;;;;;5067666;28;20519;-63
2023/01/07 03:31:30;;;;;;;0.52;0.10;;;20.40;56.60;;;;;;5067465;28;20149;-63
2023/01/07 03:34:01;;;;;;;0.20;0.20;;;20.40;56.60;;;;;;5066331;28;20120;-63
2023/01/07 03:36:35;;;;;;;0.38;0.22;;;20.40;56.60;;;;;;5062660;28;20056;-62
2023/01/07 03:39:04;;;;;;;0.10;0.00;;;20.40;56.50;;;;;;5063078;28;20047;-62
2023/01/07 03:44:16;;;;;;;0.65;0.10;;;20.40;56.50;;;;;;5066068;28;20048;-63
2023/01/07 03:46:44;;;;;;;0.25;0.10;;;20.40;56.60;;;;;;5065901;28;20068;-61
2023/01/07 03:49:11;;;;;;;0.22;0.10;;;20.40;56.50;;;;;;5065963;28;20072;-62
2023/01/07 03:51:39;;;;;;;1.55;0.13;;;20.30;56.40;;;;;;5067422;28;20090;-61
2023/01/07 03:54:07;;;;;;;0.10;0.10;;;20.40;56.40;;;;;;5066204;28;20500;-63
2023/01/07 03:56:35;;;;;;;0.10;0.10;;;20.30;56.30;;;;;;5065877;28;20121;-63
2023/01/07 03:59:02;;;;;;;0.10;0.00;;;20.30;56.30;;;;;;5067269;28;20135;-63
2023/01/07 04:01:30;;;;;;;0.73;0.10;;;20.40;56.40;;;;;;5065759;28;20115;-63
2023/01/07 04:03:57;;;;;;;0.10;0.10;;;20.40;56.30;;;;;;5066026;28;20059;-64
2023/01/07 04:06:25;;;;;;;0.10;0.00;;;20.40;56.30;;;;;;5067262;28;20048;-63
2023/01/07 04:08:53;;;;;;;0.10;0.00;;;20.40;56.30;;;;;;5065821;28;20049;-63
2023/01/07 04:11:20;;;;;;;0.10;0.00;;;20.30;56.20;;;;;;5065730;28;20072;-63
2023/01/07 04:13:47;;;;;;;1.10;0.10;;;20.30;56.30;;;;;;5065594;28;20468;-63
2023/01/07 04:16:15;;;;;;;0.10;0.03;;;20.30;56.30;;;;;;5062464;28;20060;-63
2023/01/07 04:18:42;;;;;;;0.50;0.10;;;20.30;56.20;;;;;;5065997;28;20048;-63
2023/01/07 04:21:09;;;;;;;0.13;0.10;;;20.40;56.20;;;;;;5065786;28;20036;-63
2023/01/07 04:23:36;;;;;;;0.10;0.00;;;20.30;56.10;;;;;;5065522;28;20048;-62
2023/01/07 04:26:05;;;;;;;0.10;0.10;;;20.30;56.10;;;;;;5062083;28;20051;-61
2023/01/07 04:28:32;;;;;;;1.98;0.10;;;20.30;56.10;;;;;;5053929;28;20119;-62
2023/01/07 04:30:59;;;;;;;0.00;0.00;;;20.30;56.00;;;;;;5065354;28;20122;-63
2023/01/07 04:33:27;;;;;;;0.43;0.43;;;20.30;56.00;;;;;;5065247;28;20141;-62
2023/01/07 04:35:54;;;;;;;0.00;0.00;;;20.40;56.50;;;;;;5065487;28;20143;-62
2023/01/07 04:38:21;;;;;;;0.52;0.10;;;20.30;55.90;;;;;;5065190;28;20053;-62
2023/01/07 04:40:49;;;;;;;0.10;0.10;;;20.30;55.90;;;;;;5065399;28;20041;-62
2023/01/07 04:43:18;;;;;;;0.35;0.00;;;20.30;55.80;;;;;;5064647;28;20153;-62
2023/01/07 04:45:45;;;;;;;0.65;0.10;;;20.30;56.40;;;;;;5065296;28;20044;-62
2023/01/07 04:48:15;;;;;;;0.00;0.00;;;20.30;55.80;;;;;;5064797;28;20050;-63
2023/01/07 04:50:42;;;;;;;0.10;0.00;;;20.30;55.90;;;;;;5065160;28;20057;-63
2023/01/07 04:53:10;;;;;;;9.57;0.10;;;20.30;56.00;;;;;;5064757;28;20629;-63
2023/01/07 04:55:38;;;;;;;0.98;0.00;;;20.30;55.90;;;;;;5064369;28;20110;-63
2023/01/07 04:58:05;;;;;;;1.20;0.00;;;20.30;55.90;;;;;;5060948;28;20048;-62
2023/01/07 05:00:34;;;;;;;0.10;0.10;;;20.30;55.90;;;;;;5064178;28;20041;-63
2023/01/07 05:03:01;;;;;;;1.40;0.05;;;20.30;55.90;;;;;;5064168;28;20568;-62
2023/01/07 05:05:28;;;;;;;0.40;0.00;;;20.30;55.80;;;;;;5064313;28;20101;-62
2023/01/07 05:07:56;;;;;;;1.45;0.10;;;20.40;55.90;;;;;;5064375;28;20151;-61
2023/01/07 05:10:24;;;;;;;0.10;0.10;;;20.30;56.00;;;;;;5064184;28;20588;-62
2023/01/07 05:12:52;;;;;;;2.95;0.00;;;20.30;56.00;;;;;;5062034;28;20428;-61
2023/01/07 05:15:20;;;;;;;1.77;0.00;;;20.30;56.00;;;;;;5065398;28;20147;-62
2023/01/07 05:17:49;;;;;;;2.05;0.10;;;20.30;56.00;;;;;;5063660;28;20045;-61
2023/01/07 05:20:16;;;;;;;0.08;0.08;;;20.30;56.50;;;;;;5067112;28;20119;-61
2023/01/07 05:22:45;;;;;;;3.63;0.10;;;20.30;55.90;;;;;;5065089;28;20039;-62
2023/01/07 05:25:12;;;;;;;1.55;0.10;;;20.30;55.80;;;;;;5063563;28;20040;-61
2023/01/07 05:27:39;;;;;;;0.20;0.20;;;20.20;55.70;;;;;;5063423;28;20118;-61
2023/01/07 05:30:09;;;;;;;0.85;0.10;;;20.20;55.60;;;;;;5063412;28;20787;-61
2023/01/07 05:32:36;;;;;;;4.95;0.00;;;20.30;55.70;;;;;;5064008;28;20124;-61
2023/01/07 05:35:06;;;;;;;0.10;0.00;;;20.20;55.50;;;;;;5064791;28;20049;-61
2023/01/07 05:37:33;;;;;;;1.25;0.00;;;20.20;55.50;;;;;;5064804;28;20051;-62
2023/01/07 05:40:00;;;;;;;0.80;0.00;;;20.20;55.50;;;;;;5063790;28;20028;-62
2023/01/07 05:42:27;;;;;;;0.00;0.00;;;20.20;55.50;;;;;;5064704;28;20057;-61
2023/01/07 05:44:54;;;;;;;3.13;0.10;;;20.20;55.50;;;;;;5063256;28;20036;-62
2023/01/07 05:47:21;;;;;;;2.72;0.03;;;20.20;55.60;;;;;;5063507;28;20064;-61
2023/01/07 05:49:48;;;;;;;0.05;0.05;;;20.20;55.60;;;;;;5065082;28;20272;-63
2023/01/07 05:52:16;;;;;;;0.00;0.00;;;20.20;55.50;;;;;;5065158;28;20051;-62
2023/01/07 05:54:43;;;;;;;0.10;0.10;;;20.20;55.50;;;;;;5062492;28;20055;-61
2023/01/07 05:57:11;;;;;;;0.22;0.15;;;20.20;55.50;;;;;;5063703;28;20154;-61
2023/01/07 05:59:38;;;;;;;0.45;0.10;;;20.20;55.40;;;;;;5057706;28;20028;-70
2023/01/07 06:02:06;;;;;;;1.17;0.10;;;20.20;55.10;;;;;;5056345;28;20048;-63
2023/01/07 06:04:34;;;;;;;4.38;0.10;;;20.10;55.20;;;;;;5072654;28;20044;-63
2023/01/07 06:07:01;;;;;;;0.08;0.08;;;20.10;55.30;;;;;;5072616;28;20049;-63
2023/01/07 06:09:29;;;;;;;0.20;0.08;;;20.20;55.20;;;;;;5072724;28;20063;-64
2023/01/07 06:11:56;;;;;;;2.90;0.10;;;20.20;55.30;;;;;;5071677;28;20052;-64
2023/01/07 06:14:23;;;;;;;1.92;0.10;;;20.10;55.30;;;;;;5072564;28;20192;-64
2023/01/07 06:16:51;;;;;;;0.43;0.05;;;20.20;55.40;;;;;;5073331;28;20139;-64
2023/01/07 06:19:18;;;;;;;1.52;0.10;;;20.20;55.30;;;;;;5072019;28;20102;-64
2023/01/07 06:21:45;;;;;;;0.85;0.10;;;20.20;55.30;;;;;;5072647;28;20118;-64
2023/01/07 06:24:12;;;;;;;0.10;0.10;;;20.20;55.20;;;;;;5071606;28;20052;-63
2023/01/07 06:26:40;;;;;;;1.55;0.10;;;20.20;55.20;;;;;;5073274;28;20043;-64
2023/01/07 06:29:07;;;;;;;2.45;0.10;;;20.30;55.10;;;;;;5069940;28;20056;-65
2023/01/07 06:31:34;;;;;;;5.72;0.10;;;20.30;55.20;;;;;;5073074;28;20054;-64
2023/01/07 06:34:01;;;;;;;0.77;0.10;;;20.20;55.20;;;;;;5071749;28;20094;-65
2023/01/07 06:36:28;;;;;;;0.10;0.10;;;20.20;55.20;;;;;;5070945;28;20052;-66
2023/01/07 06:38:55;;;;;;;1.45;0.20;;;20.20;55.20;;;;;;5072071;28;20048;-66
2023/01/07 06:41:22;;;;;;;0.30;0.20;;;20.20;55.20;;;;;;5072301;28;20032;-66
2023/01/07 06:43:51;;;;;;;1.17;0.10;;;20.20;55.10;;;;;;5073138;28;20082;-66
2023/01/07 06:46:18;;;;;;;0.65;0.10;;;20.20;55.00;;;;;;5072073;28;20040;-61
2023/01/07 06:48:45;;;;;;;2.92;0.10;;;20.30;55.10;;;;;;5073629;28;20127;-69
2023/01/07 06:51:12;;;;;;;2.15;0.40;;;20.20;55.30;;;;;;5072772;28;20043;-69
2023/01/07 06:53:39;;;;;;;0.90;0.10;;;20.30;55.50;;;;;;5074889;28;20040;-69
2023/01/07 06:56:06;;;;;;;6.53;0.10;;;20.30;55.40;;;;;;5076701;28;20036;-69
2023/01/07 06:58:33;;;;;;;2.75;0.10;;;20.30;55.20;;;;;;5072918;28;20134;-67
2023/01/07 07:01:05;;;;;;;7.53;0.30;;;20.30;55.60;;;;;;5075591;28;20576;-67
2023/01/07 07:03:32;;;;;;;0.30;0.10;;;20.40;54.90;;;;;;5075125;28;20052;-63
2023/01/07 07:05:59;;;;;;;1.50;0.20;;;20.40;54.90;;;;;;5074328;28;20040;-58
2023/01/07 07:08:26;;;;;;;0.20;0.17;;;20.30;50.60;;;;;;5075386;28;20105;-57
2023/01/07 07:10:53;;;;;;;0.40;0.20;;;19.80;48.80;;;;;;5075546;28;20075;-58
2023/01/07 07:13:20;;;;;;;0.52;0.10;;;19.30;48.30;;;;;;5075674;28;20049;-57
2023/01/07 07:15:48;;;;;;;0.28;0.10;;;18.80;48.50;;;;;;5075464;28;20076;-58
2023/01/07 07:18:17;;;;;;;0.65;0.22;;;18.40;48.70;;;;;;5075554;28;20050;-60
2023/01/07 07:20:46;;;;;;;0.63;0.10;;;17.90;48.80;;;;;;5075873;28;20565;-60
2023/01/07 07:23:13;;;;;;;2.58;0.10;;;17.50;49.10;;;;;;5074575;28;20108;-60
2023/01/07 07:25:40;;;;;;;0.77;0.20;;;17.10;49.50;;;;;;5075934;28;20041;-60
2023/01/07 07:28:07;;;;;;;2.53;0.10;;;16.80;49.90;;;;;;5074785;28;20060;-64
2023/01/07 07:30:36;;;;;;;0.47;0.13;;;16.50;50.40;;;;;;5074021;28;20052;-56
2023/01/07 07:33:04;;;;;;;0.80;0.25;;;16.20;50.60;;;;;;5074614;28;20586;-57
2023/01/07 07:35:32;;;;;;;2.40;0.50;;;15.90;50.90;;;;;;5075353;28;20054;-64
2023/01/07 07:37:59;;;;;;;0.57;0.30;;;15.60;52.00;;;;;;5074934;28;20063;-56
2023/01/07 07:40:26;;;;;;;1.38;0.32;;;15.50;53.70;;;;;;5075874;28;20595;-51
2023/01/07 07:42:53;;;;;;;0.10;0.10;;;15.60;55.70;;;;;;5075003;28;20122;-51
2023/01/07 07:45:20;;;;;;;0.38;0.20;;;16.00;57.00;;;;;;5074733;28;20095;-55
2023/01/07 07:47:47;;;;;;;1.33;0.13;;;16.40;57.70;;;;;;5074778;28;20189;-53
2023/01/07 07:50:14;;;;;;;0.40;0.40;;;16.80;58.00;;;;;;5072543;28;20043;-50
2023/01/07 07:52:43;;;;;;;0.28;0.10;;;17.30;58.10;;;;;;5074593;28;20041;-55
2023/01/07 07:55:10;;;;;;;0.13;0.13;;;17.70;58.10;;;;;;5074234;28;20576;-54
2023/01/07 07:57:37;;;;;;;2.20;0.40;;;18.10;57.80;;;;;;5074552;28;20087;-54
2023/01/07 08:00:06;;;;;;;0.30;0.30;;;18.50;57.60;;;;;;5074994;28;20040;-55
2023/01/07 08:02:39;;;;;;;0.70;0.10;;;18.80;57.30;;;;;;5075285;28;20048;-55
2023/01/07 08:05:10;;;;;;;0.25;0.10;;;19.20;57.00;;;;;;5074681;28;20048;-58
2023/01/07 08:07:37;;;;;;;0.50;0.10;;;19.60;56.70;;;;;;5073606;28;20079;-56
2023/01/07 08:10:06;;;;;;;0.68;0.13;;;19.80;56.10;;;;;;5075239;28;20044;-50
2023/01/07 08:12:36;;;;;;;0.10;0.10;;;20.10;55.30;;;;;;5075533;28;20048;-65
2023/01/07 08:15:05;;;;;;;8.15;2.13;;;20.30;54.70;;;;;;5074575;28;20052;-62
2023/01/07 08:17:32;;;;;;;0.45;0.10;;;20.50;54.30;;;;;;5074785;28;20436;-55
2023/01/07 08:19:59;;;;;;;0.17;0.10;;;20.60;53.90;;;;;;5074452;28;20131;-55
2023/01/07 08:22:26;;;;;;;0.10;0.10;;;20.80;53.50;;;;;;5072348;28;20052;-51
2023/01/07 08:24:53;;;;;;;0.63;0.10;;;20.90;53.20;;;;;;5075112;28;20044;-59
2023/01/07 08:27:22;;;;;;;0.70;0.10;;;21.00;52.90;;;;;;5076233;28;20102;-76
2023/01/07 08:29:49;;;;;;;5.05;0.10;;;21.10;52.70;;;;;;5058766;28;20048;-76
2023/01/07 08:32:16;;;;;;;0.10;0.10;;;21.30;52.40;;;;;;5078420;28;20417;-76
2023/01/07 08:34:43;;;;;;;1.90;0.10;;;21.40;52.00;;;;;;5074707;28;20044;-76
2023/01/07 08:37:11;;;;;;;0.55;0.10;;;21.50;51.60;;;;;;5078000;28;20065;-76
2023/01/07 08:39:38;;;;;;;0.43;0.00;;;21.50;51.00;;;;;;5077890;28;20051;-76
2023/01/07 08:42:05;;;;;;;0.55;0.10;;;21.60;50.80;;;;;;5078518;28;20125;-76
2023/01/07 08:44:34;;;;;;;1.73;0.20;;;21.70;50.50;;;;;;5071622;28;20055;-77
2023/01/07 08:47:01;;;;;;;1.13;0.10;;;21.70;50.30;;;;;;5076168;28;20481;-77
2023/01/07 08:49:28;;;;;;;0.10;0.10;;;21.80;50.10;;;;;;5078366;28;20128;-77
2023/01/07 08:51:55;;;;;;;0.65;0.10;;;21.80;50.50;;;;;;5079017;28;20040;-77
2023/01/07 08:54:22;;;;;;;0.30;0.30;;;21.80;49.60;;;;;;5075223;28;20459;-75
2023/01/07 08:56:49;;;;;;;2.83;0.20;;;21.90;49.40;;;;;;5073605;28;20042;-74
2023/01/07 08:59:17;;;;;;;6.53;0.80;;;21.90;49.50;;;;;;5074272;28;20148;-70
2023/01/07 09:01:45;;;;;;;0.30;0.10;;;21.90;50.00;;;;;;5076881;28;20075;-74
2023/01/07 09:04:12;;;;;;;0.30;0.10;;;22.00;50.00;;;;;;5077321;28;20050;-70
2023/01/07 09:06:40;;;;;;;0.15;0.10;;;22.00;50.00;;;;;;5076972;28;20119;-71
2023/01/07 09:09:07;;;;;;;0.82;0.10;;;22.00;50.10;;;;;;5073020;28;20045;-73
2023/01/07 09:11:34;;;;;;;0.35;0.10;;;22.00;50.10;;;;;;5075248;28;20040;-65
2023/01/07 09:14:02;;;;;;;0.88;0.10;;;22.00;50.20;;;;;;5073305;28;20065;-70
2023/01/07 09:16:29;;;;;;;0.20;0.10;;;22.00;50.30;;;;;;5076197;28;20036;-74
2023/01/07 09:18:57;;;;;;;0.77;0.10;;;22.00;50.30;;;;;;5074022;28;20508;-70
2023/01/07 09:21:24;;;;;;;0.10;0.10;;;22.00;50.30;;;;;;5076597;28;20047;-68
2023/01/07 09:23:51;;;;;;;0.43;0.10;;;22.00;50.30;;;;;;5073944;28;20044;-66
2023/01/07 09:26:18;;;;;;;4.03;0.10;;;22.00;50.20;;;;;;5074037;28;20535;-70
2023/01/07 09:28:45;;;;;;;1.13;0.10;;;22.00;50.20;;;;;;5075580;28;20076;-68
2023/01/07 09:31:12;;;;;;;0.52;0.10;;;22.00;50.20;;;;;;5070327;28;20154;-66
2023/01/07 09:33:40;;;;;;;1.25;0.55;;;22.00;50.20;;;;;;5073442;28;20109;-75
2023/01/07 09:36:08;;;;;;;0.38;0.10;;;22.00;50.20;;;;;;5077527;28;20131;-70
2023/01/07 09:38:37;;;;;;;0.15;0.10;;;22.10;50.10;;;;;;5077035;28;20461;-71
2023/01/07 09:41:22;;;;;;;0.98;0.05;;;22.10;50.10;;;;;;5057968;28;20052;-70
2023/01/07 09:43:54;;;;;;;0.50;0.10;;;22.10;50.10;;;;;;5075720;28;20048;-70
2023/01/07 09:46:23;;;;;;;0.32;0.25;;;22.10;50.00;;;;;;5074121;28;20608;-71
2023/01/07 09:48:55;;;;;;;0.10;0.10;;;22.10;50.10;;;;;;5072301;28;20382;-71
2023/01/07 09:51:27;;;;;;;0.40;0.25;;;22.10;50.10;;;;;;5074399;28;20084;-65
2023/01/07 09:53:57;;;;;;;2.22;0.30;;;22.10;50.10;;;;;;5072622;28;20040;-62
2023/01/07 09:56:27;;;;;;;0.40;0.10;;;22.10;50.10;;;;;;5073525;28;20067;-65
2023/01/07 09:58:56;;;;;;;3.90;0.20;;;22.10;50.00;;;;;;5075889;28;20048;-71
2023/01/07 10:01:30;;;;;;;0.68;0.50;;;22.10;50.00;;;;;;5073257;28;20123;-78
2023/01/07 10:04:08;;;;;;;3.35;0.50;;;22.10;49.90;;;;;;5072918;28;20305;-65
2023/01/07 10:06:45;;;;;;;3.38;1.52;;;22.10;49.90;;;;;;5072071;28;20036;-63
2023/01/07 10:09:27;;;;;;;16.38;6.40;;;22.20;50.00;;;;;;5072703;28;20475;-61
2023/01/07 10:12:03;;;;;;;27.63;9.75;;;22.10;49.80;;;;;;5073129;28;20519;-61
2023/01/07 10:14:51;;;;;;;30.70;10.38;;;22.10;49.80;;;;;;5072840;28;20040;-64
2023/01/07 10:17:29;;;;;;;34.00;13.77;;;22.10;49.80;;;;;;5071899;28;20076;-63
2023/01/07 10:20:02;;;;;;;43.63;16.65;;;22.10;49.80;;;;;;5073020;28;20071;-62
2023/01/07 10:22:35;;;;;;;55.60;21.45;;;22.10;49.80;;;;;;5070814;28;20047;-66
2023/01/07 10:25:06;;;;;;;60.72;21.85;;;22.10;49.80;;;;;;5072682;28;20044;-61
2023/01/07 10:27:37;;;;;;;47.75;17.98;;;22.10;49.90;;;;;;5072301;28;20155;-62
2023/01/07 10:30:10;;;;;;;50.72;17.45;;;22.10;50.00;;;;;;5075213;28;20051;-73
2023/01/07 10:32:38;;;;;;;35.15;14.32;;;22.10;49.90;;;;;;5061557;28;20048;-66
2023/01/07 10:35:16;;;;;;;42.95;15.63;;;22.10;49.80;;;;;;5077015;28;20054;-69
2023/01/07 10:37:44;;;;;;;31.45;12.18;;;22.10;49.70;;;;;;5076832;28;20127;-72
2023/01/07 10:40:26;;;;;;;29.92;11.77;;;22.10;49.70;;;;;;5078124;28;20055;-64
2023/01/07 10:42:59;;;;;;;36.10;12.15;;;22.10;49.60;;;;;;5075626;28;20908;-62
2023/01/07 10:45:52;;;;;;;30.63;9.68;;;22.10;49.60;;;;;;5076506;28;20073;-69
2023/01/07 10:48:51;;;;;;;34.70;10.25;;;22.20;49.60;;;;;;5074305;28;20151;-74
2023/01/07 10:51:37;;;;;;;26.65;7.85;;;22.10;49.60;;;;;;5072156;28;20139;-65
2023/01/07 10:54:23;;;;;;;19.58;7.80;;;22.10;49.50;;;;;;5079287;28;20081;-69
2023/01/07 10:56:57;;;;;;;21.35;7.07;;;22.10;49.50;;;;;;5078695;28;20043;-71
2023/01/07 10:59:25;;;;;;;16.15;6.78;;;22.10;49.40;;;;;;5077000;28;20040;-69
2023/01/07 11:01:56;;;;;;;18.83;6.50;;;22.10;49.30;;;;;;5078141;28;20045;-73
2023/01/07 11:04:23;;;;;;;15.30;6.15;;;22.10;49.20;;;;;;5077394;28;20039;-68
2023/01/07 11:06:55;;;;;;;17.38;6.95;;;22.10;49.00;;;;;;5075509;28;20412;-63
2023/01/07 11:09:28;;;;;;;10.57;4.70;;;22.10;48.90;;;;;;5073889;28;20276;-62
2023/01/07 11:11:56;;;;;;;12.90;4.50;;;22.10;48.90;;;;;;5076535;28;20122;-63
2023/01/07 11:14:28;;;;;;;11.02;4.95;;;22.10;48.90;;;;;;5075386;28;20055;-63
2023/01/07 11:17:02;;;;;;;9.00;4.43;;;22.20;48.90;;;;;;5076138;28;20097;-62
2023/01/07 11:19:43;;;;;;;8.52;4.53;;;22.20;48.90;;;;;;5075402;28;20159;-64
2023/01/07 11:22:28;;;;;;;14.45;3.30;;;22.20;48.80;;;;;;5076368;28;20140;-63
2023/01/07 11:24:58;;;;;;;13.07;3.55;;;22.20;48.70;;;;;;5074885;28;20048;-58
2023/01/07 11:27:28;;;;;;;10.30;3.10;;;22.10;48.70;;;;;;5075843;28;20070;-60
2023/01/07 11:30:02;;;;;;;12.65;2.80;;;22.20;48.70;;;;;;5074733;28;20530;-60
2023/01/07 11:32:32;;;;;;;5.70;2.65;;;22.20;48.60;;;;;;5056828;28;21105;-60
2023/01/07 11:35:02;;;;;;;4.38;1.95;;;22.20;48.50;;;;;;5056764;28;20049;-57
2023/01/07 11:37:38;;;;;;;7.95;2.00;;;22.20;48.30;;;;;;5075440;28;20064;-58
2023/01/07 11:40:19;;;;;;;4.13;1.75;;;22.20;48.20;;;;;;5075019;28;20119;-56
2023/01/07 11:42:52;;;;;;;5.25;1.38;;;22.20;48.10;;;;;;5074656;28;20567;-57
2023/01/07 11:45:22;;;;;;;3.03;1.02;;;22.20;48.10;;;;;;5074480;28;20557;-58
2023/01/07 11:48:01;;;;;;;5.32;1.65;;;22.20;48.10;;;;;;5075173;28;20056;-60
2023/01/07 11:50:38;;;;;;;3.92;1.42;;;22.20;48.00;;;;;;5075129;28;20055;-60
2023/01/07 11:53:23;;;;;;;1.95;1.02;;;22.20;48.00;;;;;;5075127;28;20040;-62
2023/01/07 11:55:59;;;;;;;2.28;1.13;;;22.20;48.00;;;;;;5076313;28;20076;-57
2023/01/07 11:58:28;;;;;;;5.35;1.40;;;22.20;48.20;;;;;;5077096;28;20428;-60
2023/01/07 12:01:17;;;;;;;7.35;0.63;;;22.10;46.60;;;;;;5076726;28;20510;-61
2023/01/07 12:03:58;;;;;;;1.65;0.20;;;22.00;43.40;;;;;;5077857;28;20097;-60
2023/01/07 12:06:27;;;;;;;1.88;0.43;;;21.60;42.20;;;;;;5076404;28;20596;-56
2023/01/07 12:09:01;;;;;;;6.55;0.52;;;21.30;41.50;;;;;;5079581;28;20439;-57
2023/01/07 12:11:34;;;;;;;0.80;0.17;;;20.90;41.70;;;;;;5078183;28;20052;-62
2023/01/07 12:14:07;;;;;;;6.00;0.20;;;20.60;42.10;;;;;;5077614;28;20123;-57
2023/01/07 12:16:36;;;;;;;3.97;0.77;;;20.30;42.10;;;;;;5078895;28;20040;-58
2023/01/07 12:19:17;;;;;;;2.10;0.32;;;20.00;42.10;;;;;;5076881;28;20032;-61
2023/01/07 12:22:00;;;;;;;4.47;0.32;;;19.80;42.30;;;;;;5081121;28;20048;-60
2023/01/07 12:25:02;;;;;;;2.72;0.10;;;19.60;42.40;;;;;;5082009;28;20070;-62
2023/01/07 12:27:42;;;;;;;1.17;0.10;;;19.30;42.70;;;;;;5078475;28;20122;-56
2023/01/07 12:30:36;;;;;;;2.30;0.10;;;19.00;42.90;;;;;;5076609;28;20044;-60
2023/01/07 12:33:17;;;;;;;2.83;0.20;;;18.80;43.20;;;;;;5079087;28;20081;-58
2023/01/07 12:35:45;;;;;;;3.55;0.20;;;18.60;43.50;;;;;;5076923;28;20090;-56
2023/01/07 12:38:18;;;;;;;2.85;0.20;;;18.40;43.70;;;;;;5076978;28;20043;-56
2023/01/07 12:40:51;;;;;;;0.40;0.30;;;18.30;44.00;;;;;;5081002;28;20054;-56
2023/01/07 12:43:25;;;;;;;4.13;0.20;;;18.20;44.40;;;;;;5076862;28;20056;-53
2023/01/07 12:45:55;;;;;;;1.38;0.57;;;18.10;44.70;;;;;;5079477;28;20488;-64
2023/01/07 12:48:31;;;;;;;0.50;0.32;;;17.90;45.00;;;;;;5075841;28;20078;-61
2023/01/07 12:51:01;;;;;;;1.90;0.20;;;17.90;45.40;;;;;;5070196;28;20053;-61
2023/01/07 12:53:34;;;;;;;2.42;0.60;;;17.80;45.60;;;;;;5069038;28;20072;-58
2023/01/07 12:56:06;;;;;;;1.58;0.10;;;17.80;45.80;;;;;;5078622;28;20527;-55
2023/01/07 12:58:44;;;;;;;2.83;0.50;;;17.80;45.80;;;;;;5073430;28;20047;-64
2023/01/07 13:01:21;;;;;;;4.28;0.43;;;17.90;45.90;;;;;;5073866;28;20119;-61
2023/01/07 13:03:56;;;;;;;3.25;0.10;;;17.90;46.50;;;;;;5073448;28;20040;-64
2023/01/07 13:06:43;;;;;;;1.10;0.10;;;18.00;47.20;;;;;;5073389;28;20051;-56